Wetterdaten: Woche 19.09.11 - 25.09.11 (KW38)
Datum Zeit Temp. A. Feuchte A. Luftdruck Regen Wind Richtung Taupunkt Windchill Windben
19.09.2011 00:00 13,3 C 73 % 1009,9 hPa 0,0 l/m 3,0 km/h N-NW 8,6 C 13,3 C 13,7 km/h
19.09.2011 01:00 12,7 C 78 % 1009,6 hPa 0,3 l/m 2,5 km/h S 8,8 C 12,7 C 12,5 km/h
19.09.2011 02:00 11,8 C 79 % 1009,6 hPa 0,0 l/m 1,9 km/h S-SW 8,3 C 11,8 C 12,5 km/h
19.09.2011 03:00 11,7 C 78 % 1009,7 hPa 0,0 l/m 1,6 km/h S-SW 8,0 C 11,7 C 9,3 km/h
19.09.2011 04:00 11,7 C 78 % 1009,8 hPa 0,3 l/m 1,6 km/h W 8,0 C 11,7 C 8,4 km/h
19.09.2011 05:00 11,3 C 81 % 1010,1 hPa 0,0 l/m 1,6 km/h S-SO 8,1 C 11,3 C 10,4 km/h
19.09.2011 06:00 11,0 C 82 % 1009,9 hPa 0,0 l/m 2,3 km/h SW 8,0 C 11,0 C 15,7 km/h
19.09.2011 07:00 11,1 C 81 % 1010,6 hPa 0,0 l/m 2,3 km/h SW 7,9 C 11,1 C 12,1 km/h
19.09.2011 08:00 11,2 C 81 % 1010,7 hPa 0,5 l/m 0,9 km/h S 8,1 C 11,2 C 7,2 km/h
19.09.2011 09:00 11,1 C 82 % 1010,8 hPa 0,3 l/m 0,9 km/h W-NW 8,2 C 11,1 C 8,4 km/h
19.09.2011 10:00 11,8 C 82 % 1010,6 hPa 0,0 l/m 2,4 km/h NW 8,8 C 11,8 C 9,6 km/h
19.09.2011 11:00 12,9 C 80 % 1010,3 hPa 0,0 l/m 4,9 km/h N-NW 9,4 C 12,9 C 15,7 km/h
19.09.2011 12:00 13,8 C 76 % 1010,3 hPa 0,0 l/m 5,1 km/h S-SW 9,6 C 13,8 C 16,5 km/h
19.09.2011 13:00 13,6 C 75 % 1010,1 hPa 0,0 l/m 5,1 km/h N-NW 9,3 C 13,6 C 16,9 km/h
19.09.2011 14:00 13,1 C 77 % 1009,9 hPa 0,0 l/m 3,7 km/h S 9,1 C 13,1 C 14,1 km/h
19.09.2011 15:00 12,7 C 78 % 1010,1 hPa 0,0 l/m 4,0 km/h NW 8,9 C 12,7 C 13,7 km/h
19.09.2011 16:00 12,3 C 79 % 1010,7 hPa 0,0 l/m 4,5 km/h N-NW 8,8 C 12,3 C 18,5 km/h
19.09.2011 17:00 12,0 C 80 % 1011,1 hPa 0,0 l/m 3,8 km/h NW 8,6 C 12,0 C 21,3 km/h
19.09.2011 18:00 11,6 C 81 % 1011,0 hPa 1,0 l/m 6,0 km/h N-NW 8,5 C 11,4 C 23,7 km/h
19.09.2011 19:00 10,1 C 82 % 1012,2 hPa 1,3 l/m 5,1 km/h NW 7,2 C 10,1 C 22,5 km/h
19.09.2011 20:00 9,6 C 82 % 1012,8 hPa 0,8 l/m 5,4 km/h N-NW 6,7 C 9,5 C 19,3 km/h
19.09.2011 21:00 9,6 C 82 % 1013,7 hPa 0,8 l/m 4,6 km/h NW 6,6 C 9,6 C 21,7 km/h
19.09.2011 22:00 9,6 C 82 % 1014,1 hPa 0,3 l/m 5,0 km/h NW 6,6 C 9,6 C 21,3 km/h
19.09.2011 23:00 9,7 C 82 % 1014,3 hPa 0,5 l/m 6,1 km/h NW 6,7 C 9,6 C 21,7 km/h
20.09.2011 00:00 9,9 C 82 % 1014,6 hPa 0,3 l/m 6,2 km/h W 7,0 C 9,9 C 24,5 km/h
20.09.2011 01:00 10,3 C 83 % 1015,4 hPa 0,3 l/m 5,4 km/h W-SW 7,4 C 10,3 C 29,0 km/h
20.09.2011 02:00 10,2 C 83 % 1015,9 hPa 0,3 l/m 6,3 km/h SW 7,5 C 10,2 C 29,0 km/h
20.09.2011 03:00 10,3 C 83 % 1016,2 hPa 0,3 l/m 6,3 km/h W-NW 7,5 C 9,9 C 25,8 km/h
20.09.2011 04:00 10,5 C 83 % 1016,1 hPa 0,3 l/m 8,4 km/h SW 7,8 C 9,2 C 30,6 km/h
20.09.2011 05:00 10,7 C 83 % 1017,0 hPa 0,3 l/m 5,8 km/h NW 7,9 C 10,7 C 23,8 km/h
20.09.2011 06:00 10,8 C 83 % 1017,6 hPa 0,0 l/m 6,2 km/h SW 8,0 C 10,6 C 25,8 km/h
20.09.2011 07:00 10,8 C 83 % 1018,3 hPa 0,3 l/m 6,4 km/h S 8,0 C 10,6 C 23,3 km/h
20.09.2011 08:00 11,1 C 83 % 1019,5 hPa 0,3 l/m 6,7 km/h N-NO 8,3 C 10,9 C 27,3 km/h
20.09.2011 09:00 11,5 C 82 % 1020,6 hPa 0,0 l/m 5,8 km/h W 8,5 C 11,4 C 22,5 km/h
20.09.2011 10:00 11,5 C 83 % 1021,2 hPa 0,3 l/m 4,9 km/h NW 8,7 C 11,5 C 21,3 km/h
20.09.2011 11:00 12,1 C 82 % 1021,8 hPa 0,0 l/m 4,3 km/h N-NO 9,1 C 12,1 C 22,1 km/h
20.09.2011 12:00 12,4 C 82 % 1022,1 hPa 0,0 l/m 5,0 km/h NW 9,4 C 12,4 C 19,3 km/h
20.09.2011 13:00 12,6 C 82 % 1022,2 hPa 0,3 l/m 5,3 km/h NW 9,6 C 12,6 C 19,7 km/h
20.09.2011 14:00 12,6 C 82 % 1022,2 hPa 0,0 l/m 5,1 km/h N-NW 9,7 C 12,6 C 18,5 km/h
20.09.2011 15:00 12,6 C 82 % 1022,4 hPa 0,0 l/m 4,7 km/h NW 9,6 C 12,6 C 17,3 km/h
20.09.2011 16:00 12,8 C 83 % 1022,2 hPa 0,0 l/m 6,1 km/h NW 9,9 C 12,8 C 18,9 km/h
20.09.2011 17:00 12,8 C 83 % 1022,3 hPa 0,0 l/m 6,1 km/h NW 9,9 C 12,6 C 19,3 km/h
20.09.2011 18:00 12,7 C 83 % 1023,0 hPa 0,3 l/m 4,7 km/h N-NW 9,9 C 12,7 C 13,7 km/h
20.09.2011 19:00 12,6 C 83 % 1023,6 hPa 0,0 l/m 5,0 km/h NW 9,8 C 12,6 C 12,5 km/h
20.09.2011 20:00 12,7 C 83 % 1023,7 hPa 0,0 l/m 5,6 km/h N-NW 9,9 C 12,7 C 17,7 km/h
20.09.2011 21:00 12,7 C 83 % 1024,2 hPa 0,0 l/m 4,3 km/h NW 9,9 C 12,7 C 13,7 km/h
20.09.2011 22:00 12,8 C 83 % 1024,1 hPa 0,0 l/m 4,1 km/h N-NW 10,0 C 12,8 C 12,9 km/h
20.09.2011 23:00 12,8 C 83 % 1023,6 hPa 0,0 l/m 5,2 km/h N-NW 10,0 C 12,8 C 16,5 km/h
21.09.2011 00:00 12,9 C 83 % 1023,4 hPa 0,0 l/m 3,8 km/h NW 10,0 C 12,9 C 10,5 km/h
21.09.2011 01:00 13,1 C 82 % 1023,2 hPa 0,0 l/m 4,2 km/h N-NW 10,1 C 13,1 C 10,5 km/h
21.09.2011 02:00 13,1 C 82 % 1022,8 hPa 0,0 l/m 4,0 km/h N-NW 10,1 C 13,1 C 10,5 km/h
21.09.2011 03:00 13,1 C 82 % 1022,4 hPa 0,3 l/m 4,6 km/h N-NW 10,1 C 13,1 C 12,9 km/h
21.09.2011 04:00 13,1 C 82 % 1021,8 hPa 0,0 l/m 4,8 km/h NW 10,0 C 13,1 C 11,7 km/h
21.09.2011 05:00 13,3 C 81 % 1021,5 hPa 0,0 l/m 4,3 km/h N-NW 10,1 C 13,3 C 14,9 km/h
21.09.2011 06:00 13,3 C 81 % 1021,5 hPa 0,0 l/m 2,5 km/h NW 10,1 C 13,3 C 8,9 km/h
21.09.2011 07:00 13,4 C 81 % 1021,6 hPa 0,0 l/m 2,0 km/h N-NW 10,2 C 13,4 C 8,0 km/h
21.09.2011 08:00 13,9 C 80 % 1021,5 hPa 0,0 l/m 2,7 km/h NW 10,5 C 13,9 C 8,0 km/h
21.09.2011 09:00 14,5 C 79 % 1021,5 hPa 0,0 l/m 3,4 km/h NW 10,9 C 14,5 C 11,3 km/h
21.09.2011 10:00 15,1 C 78 % 1021,3 hPa 0,0 l/m 2,4 km/h N-NW 11,2 C 15,1 C 7,2 km/h
21.09.2011 11:00 16,0 C 76 % 1020,9 hPa 0,0 l/m 2,9 km/h N-NW 11,7 C 16,0 C 8,9 km/h
21.09.2011 12:00 16,5 C 76 % 1020,6 hPa 0,0 l/m 2,0 km/h N-NW 12,2 C 16,5 C 6,8 km/h
21.09.2011 13:00 17,2 C 76 % 1020,0 hPa 0,0 l/m 1,5 km/h NO 12,9 C 17,2 C 6,0 km/h
21.09.2011 14:00 18,0 C 75 % 1019,3 hPa 0,0 l/m 2,5 km/h N-NW 13,4 C 18,0 C 8,0 km/h
21.09.2011 15:00 18,5 C 74 % 1018,7 hPa 0,0 l/m 2,1 km/h NW 13,8 C 18,5 C 8,0 km/h
21.09.2011 16:00 18,8 C 73 % 1018,3 hPa 0,0 l/m 2,3 km/h W-SW 13,9 C 18,8 C 8,0 km/h
21.09.2011 17:00 18,9 C 74 % 1018,0 hPa 0,0 l/m 1,3 km/h SW 14,1 C 18,9 C 7,2 km/h
21.09.2011 18:00 18,3 C 75 % 1018,1 hPa 0,0 l/m 0,2 km/h N 13,7 C 18,3 C 3,2 km/h
21.09.2011 19:00 17,3 C 77 % 1018,3 hPa 0,0 l/m 0,0 km/h N 13,2 C 17,3 C 0,8 km/h
21.09.2011 20:00 16,6 C 80 % 1018,7 hPa 0,0 l/m 0,1 km/h N 13,1 C 16,6 C 2,4 km/h
21.09.2011 21:00 16,3 C 81 % 1018,7 hPa 0,0 l/m 0,3 km/h N 13,0 C 16,3 C 4,8 km/h
21.09.2011 22:00 16,0 C 81 % 1018,7 hPa 0,0 l/m 0,3 km/h N 12,8 C 16,0 C 5,2 km/h
21.09.2011 23:00 15,5 C 82 % 1018,5 hPa 0,0 l/m 0,3 km/h N 12,5 C 15,5 C 4,0 km/h
22.09.2011 00:00 15,3 C 82 % 1018,2 hPa 0,0 l/m 0,1 km/h N 12,2 C 15,3 C 3,6 km/h
22.09.2011 01:00 14,9 C 82 % 1018,1 hPa 0,0 l/m 0,1 km/h N 11,9 C 14,9 C 2,8 km/h
22.09.2011 02:00 14,9 C 82 % 1017,9 hPa 0,0 l/m 0,8 km/h W 11,9 C 14,9 C 6,8 km/h
22.09.2011 03:00 14,8 C 82 % 1017,7 hPa 0,0 l/m 0,7 km/h SW 11,8 C 14,8 C 5,6 km/h
22.09.2011 04:00 14,0 C 82 % 1017,9 hPa 0,0 l/m 0,5 km/h W-NW 11,0 C 14,0 C 3,6 km/h
22.09.2011 05:00 13,9 C 82 % 1018,2 hPa 0,0 l/m 0,5 km/h N 10,9 C 13,9 C 4,4 km/h
22.09.2011 06:00 13,2 C 83 % 1018,6 hPa 0,3 l/m 0,1 km/h N 10,4 C 13,2 C 2,4 km/h
22.09.2011 07:00 13,3 C 82 % 1018,6 hPa 0,0 l/m 0,9 km/h S-SO 10,3 C 13,3 C 9,2 km/h
22.09.2011 08:00 14,6 C 82 % 1018,6 hPa 0,0 l/m 2,7 km/h S-SO 11,6 C 14,6 C 17,7 km/h
22.09.2011 09:00 16,1 C 78 % 1018,7 hPa 0,0 l/m 3,1 km/h O-SO 12,3 C 16,1 C 15,3 km/h
22.09.2011 10:00 17,6 C 73 % 1018,7 hPa 0,0 l/m 4,7 km/h S-SW 12,7 C 17,6 C 18,9 km/h
22.09.2011 11:00 18,8 C 68 % 1018,6 hPa 0,0 l/m 4,8 km/h S-SO 12,8 C 18,8 C 16,9 km/h
22.09.2011 12:00 19,6 C 66 % 1018,4 hPa 0,0 l/m 4,0 km/h S 13,1 C 19,6 C 14,5 km/h
22.09.2011 13:00 20,3 C 65 % 1017,9 hPa 0,0 l/m 4,8 km/h NW 13,4 C 20,3 C 14,1 km/h
22.09.2011 14:00 20,8 C 63 % 1017,7 hPa 0,0 l/m 4,1 km/h NW 13,4 C 20,8 C 12,5 km/h
22.09.2011 15:00 21,0 C 61 % 1017,3 hPa 0,0 l/m 3,0 km/h N-NW 13,2 C 21,0 C 8,4 km/h
22.09.2011 16:00 21,1 C 59 % 1017,2 hPa 0,0 l/m 4,0 km/h N-NO 12,7 C 21,1 C 12,1 km/h
22.09.2011 17:00 20,6 C 57 % 1017,0 hPa 0,0 l/m 2,3 km/h W-NW 11,9 C 20,6 C 10,5 km/h
22.09.2011 18:00 19,7 C 59 % 1017,2 hPa 0,0 l/m 1,4 km/h N-NW 11,5 C 19,7 C 6,0 km/h
22.09.2011 19:00 18,6 C 64 % 1017,6 hPa 0,0 l/m 0,7 km/h S 11,6 C 18,6 C 4,8 km/h
22.09.2011 20:00 17,9 C 68 % 1018,2 hPa 0,0 l/m 1,5 km/h S-SW 11,8 C 17,9 C 11,7 km/h
22.09.2011 21:00 17,5 C 70 % 1018,6 hPa 0,0 l/m 1,9 km/h SW 11,9 C 17,5 C 14,9 km/h
22.09.2011 22:00 17,2 C 70 % 1018,8 hPa 0,0 l/m 1,0 km/h NW 11,6 C 17,2 C 8,0 km/h
22.09.2011 23:00 17,2 C 70 % 1019,1 hPa 0,0 l/m 1,1 km/h SW 11,6 C 17,2 C 7,2 km/h
23.09.2011 00:00 16,9 C 70 % 1019,0 hPa 0,0 l/m 0,5 km/h N 11,5 C 16,9 C 6,4 km/h
23.09.2011 01:00 16,5 C 73 % 1018,9 hPa 0,0 l/m 0,3 km/h N 11,6 C 16,5 C 2,8 km/h
23.09.2011 02:00 16,5 C 73 % 1018,9 hPa 0,0 l/m 0,7 km/h N 11,7 C 16,5 C 3,6 km/h
23.09.2011 03:00 16,0 C 75 % 1018,8 hPa 0,0 l/m 0,2 km/h N 11,6 C 16,0 C 2,4 km/h
23.09.2011 04:00 14,9 C 77 % 1018,8 hPa 0,0 l/m 0,0 km/h N 10,9 C 14,9 C 1,2 km/h
23.09.2011 05:00 14,0 C 78 % 1018,7 hPa 0,0 l/m 0,0 km/h N 10,2 C 14,0 C 0,0 km/h
23.09.2011 06:00 12,9 C 79 % 1018,8 hPa 0,0 l/m 0,0 km/h N 9,4 C 12,9 C 0,0 km/h
23.09.2011 07:00 12,0 C 82 % 1019,1 hPa 0,0 l/m 0,0 km/h N 9,0 C 12,0 C 0,8 km/h
23.09.2011 08:00 13,0 C 82 % 1019,2 hPa 0,0 l/m 0,1 km/h N 10,0 C 13,0 C 2,0 km/h
23.09.2011 09:00 15,0 C 81 % 1019,5 hPa 0,0 l/m 1,3 km/h N-NW 11,9 C 15,0 C 5,6 km/h
23.09.2011 10:00 16,9 C 76 % 1019,4 hPa 0,0 l/m 1,7 km/h N-NW 12,6 C 16,9 C 5,6 km/h
23.09.2011 11:00 18,2 C 69 % 1019,0 hPa 0,0 l/m 1,7 km/h N-NW 12,4 C 18,2 C 6,8 km/h
23.09.2011 12:00 19,5 C 62 % 1018,3 hPa 0,0 l/m 2,1 km/h N 11,9 C 19,5 C 8,1 km/h
23.09.2011 13:00 20,0 C 58 % 1017,8 hPa 0,0 l/m 2,2 km/h N-NW 11,5 C 20,0 C 8,0 km/h
23.09.2011 14:00 20,7 C 56 % 1017,2 hPa 0,0 l/m 3,1 km/h N-NW 11,6 C 20,7 C 10,1 km/h
23.09.2011 15:00 20,6 C 56 % 1016,8 hPa 0,0 l/m 3,9 km/h N 11,6 C 20,6 C 10,5 km/h
23.09.2011 16:00 20,2 C 57 % 1016,5 hPa 0,0 l/m 2,4 km/h N-NO 11,5 C 20,2 C 8,1 km/h
23.09.2011 17:00 19,9 C 59 % 1016,5 hPa 0,0 l/m 0,4 km/h N 11,7 C 19,9 C 3,6 km/h
23.09.2011 18:00 19,2 C 61 % 1016,6 hPa 0,0 l/m 0,1 km/h N 11,5 C 19,2 C 1,2 km/h
23.09.2011 19:00 18,3 C 66 % 1017,0 hPa 0,0 l/m 0,0 km/h N 11,7 C 18,3 C 0,0 km/h
23.09.2011 20:00 17,2 C 72 % 1017,5 hPa 0,0 l/m 0,0 km/h N 12,0 C 17,2 C 0,0 km/h
23.09.2011 21:00 16,4 C 74 % 1017,6 hPa 0,3 l/m 0,0 km/h N 11,8 C 16,4 C 0,4 km/h
23.09.2011 22:00 15,9 C 76 % 1017,8 hPa 0,0 l/m 0,0 km/h N 11,7 C 15,9 C 1,2 km/h
23.09.2011 23:00 15,4 C 77 % 1017,8 hPa 0,0 l/m 0,0 km/h N 11,4 C 15,4 C 0,4 km/h
24.09.2011 00:00 14,8 C 78 % 1017,8 hPa 0,0 l/m 0,0 km/h N 11,0 C 14,8 C 0,0 km/h
24.09.2011 01:00 13,9 C 79 % 1018,1 hPa 0,0 l/m 0,0 km/h N 10,3 C 13,9 C 0,0 km/h
24.09.2011 02:00 13,5 C 81 % 1018,2 hPa 0,0 l/m 0,0 km/h N 10,2 C 13,5 C 0,0 km/h
24.09.2011 03:00 13,3 C 82 % 1018,1 hPa 0,0 l/m 0,0 km/h N 10,2 C 13,3 C 0,0 km/h
24.09.2011 04:00 12,8 C 82 % 1018,3 hPa 0,0 l/m 0,0 km/h N 9,7 C 12,8 C 0,4 km/h
24.09.2011 05:00 12,1 C 82 % 1018,5 hPa 0,0 l/m 0,0 km/h N 9,1 C 12,1 C 0,0 km/h
24.09.2011 06:00 11,9 C 83 % 1018,7 hPa 0,0 l/m 0,0 km/h N 9,1 C 11,9 C 0,0 km/h
24.09.2011 07:00 11,9 C 83 % 1018,8 hPa 0,0 l/m 0,0 km/h N 9,1 C 11,9 C 0,0 km/h
24.09.2011 08:00 12,2 C 83 % 1019,3 hPa 0,0 l/m 0,0 km/h N 9,3 C 12,2 C 0,0 km/h
24.09.2011 09:00 13,4 C 80 % 1019,7 hPa 0,0 l/m 0,0 km/h N 9,9 C 13,4 C 1,2 km/h
24.09.2011 10:00 14,8 C 74 % 1019,8 hPa 0,0 l/m 0,0 km/h N 10,2 C 14,8 C 1,6 km/h
24.09.2011 11:00 16,3 C 70 % 1019,7 hPa 0,0 l/m 0,2 km/h N 10,7 C 16,3 C 2,4 km/h
24.09.2011 12:00 17,6 C 64 % 1019,3 hPa 0,0 l/m 0,3 km/h N 10,7 C 17,6 C 4,0 km/h
24.09.2011 13:00 18,6 C 61 % 1019,0 hPa 0,0 l/m 0,2 km/h N 10,8 C 18,6 C 2,8 km/h
24.09.2011 14:00 19,3 C 57 % 1018,5 hPa 0,0 l/m 0,8 km/h N-NO 10,6 C 19,3 C 4,8 km/h
24.09.2011 15:00 19,7 C 56 % 1018,3 hPa 0,0 l/m 0,5 km/h N 10,7 C 19,7 C 4,0 km/h
24.09.2011 16:00 19,7 C 56 % 1018,1 hPa 0,0 l/m 0,3 km/h N 10,6 C 19,7 C 2,8 km/h
24.09.2011 17:00 19,6 C 57 % 1018,0 hPa 0,0 l/m 0,2 km/h N 10,9 C 19,6 C 2,8 km/h
24.09.2011 18:00 18,8 C 60 % 1018,1 hPa 0,0 l/m 0,0 km/h N 10,8 C 18,8 C 0,8 km/h
24.09.2011 19:00 16,9 C 68 % 1018,4 hPa 0,0 l/m 0,0 km/h N 10,8 C 16,9 C 0,4 km/h
24.09.2011 20:00 14,8 C 75 % 1018,8 hPa 0,0 l/m 0,0 km/h N 10,3 C 14,8 C 0,8 km/h
24.09.2011 21:00 13,3 C 78 % 1019,2 hPa 0,0 l/m 0,0 km/h N 9,5 C 13,3 C 0,0 km/h
24.09.2011 22:00 12,3 C 80 % 1019,4 hPa 0,0 l/m 0,0 km/h N 8,9 C 12,3 C 0,0 km/h
24.09.2011 23:00 11,5 C 82 % 1019,5 hPa 0,0 l/m 0,0 km/h N 8,4 C 11,5 C 0,0 km/h
25.09.2011 00:00 10,9 C 83 % 1019,5 hPa 0,0 l/m 0,0 km/h N 8,1 C 10,9 C 0,0 km/h
25.09.2011 01:00 10,4 C 83 % 1019,6 hPa 0,0 l/m 0,0 km/h N 7,6 C 10,4 C 0,0 km/h
25.09.2011 02:00 9,8 C 83 % 1019,6 hPa 0,0 l/m 0,0 km/h N 7,1 C 9,8 C 0,0 km/h
25.09.2011 03:00 9,3 C 83 % 1019,7 hPa 0,0 l/m 0,0 km/h N 6,5 C 9,3 C 0,0 km/h
25.09.2011 04:00 9,0 C 83 % 1019,7 hPa 0,0 l/m 0,0 km/h N 6,2 C 9,0 C 0,0 km/h
25.09.2011 05:00 8,8 C 82 % 1019,9 hPa 0,0 l/m 0,0 km/h N 5,9 C 8,8 C 0,0 km/h
25.09.2011 06:00 8,5 C 83 % 1020,3 hPa 0,0 l/m 0,0 km/h N 5,8 C 8,5 C 0,0 km/h
25.09.2011 07:00 8,4 C 82 % 1020,8 hPa 0,0 l/m 0,0 km/h N 5,5 C 8,4 C 0,0 km/h
25.09.2011 08:00 9,4 C 80 % 1021,2 hPa 0,0 l/m 0,0 km/h N 6,1 C 9,4 C 0,4 km/h
25.09.2011 09:00 11,3 C 79 % 1021,4 hPa 0,0 l/m 0,0 km/h N 7,7 C 11,3 C 1,2 km/h
25.09.2011 10:00 13,0 C 80 % 1021,7 hPa 0,0 l/m 0,0 km/h N 9,6 C 13,0 C 1,2 km/h
25.09.2011 11:00 14,6 C 82 % 1021,7 hPa 0,0 l/m 0,2 km/h N 11,6 C 14,6 C 3,2 km/h
25.09.2011 12:00 17,0 C 77 % 1021,5 hPa 0,0 l/m 0,3 km/h N 12,9 C 17,0 C 4,4 km/h
25.09.2011 13:00 19,0 C 72 % 1021,0 hPa 0,0 l/m 0,6 km/h N 13,8 C 19,0 C 4,0 km/h
25.09.2011 14:00 20,8 C 66 % 1020,4 hPa 0,0 l/m 0,4 km/h N 14,1 C 20,8 C 4,4 km/h
25.09.2011 15:00 22,6 C 58 % 1020,1 hPa 0,0 l/m 0,7 km/h S 13,7 C 22,6 C 6,8 km/h
25.09.2011 16:00 23,3 C 55 % 1020,1 hPa 0,0 l/m 0,6 km/h N 13,6 C 23,3 C 6,0 km/h
25.09.2011 17:00 22,6 C 55 % 1020,3 hPa 0,0 l/m 0,4 km/h N 13,2 C 22,6 C 3,2 km/h
25.09.2011 18:00 21,5 C 59 % 1020,6 hPa 0,0 l/m 0,0 km/h N 13,1 C 21,5 C 1,2 km/h
25.09.2011 19:00 18,9 C 67 % 1021,1 hPa 0,0 l/m 0,0 km/h N 12,6 C 18,9 C 0,0 km/h
25.09.2011 20:00 16,3 C 74 % 1021,6 hPa 0,0 l/m 0,0 km/h N 11,7 C 16,3 C 0,4 km/h
25.09.2011 21:00 14,7 C 78 % 1021,8 hPa 0,0 l/m 0,0 km/h N 10,9 C 14,7 C 0,0 km/h
25.09.2011 22:00 13,5 C 81 % 1022,3 hPa 0,0 l/m 0,0 km/h N 10,2 C 13,5 C 0,0 km/h
25.09.2011 23:00 12,6 C 82 % 1022,6 hPa 0,0 l/m 0,0 km/h N 9,6 C 12,6 C 0,0 km/h
Min-Datum _ 25.09.11 23.09.11 19.09.11 - 21.09.11 - 25.09.11 25.09.11 21.09.11
_ Min-Zeit 07:15 14:15 01:15 - 18:30 - 07:15 07:15 19:00
Minimum _ 8,3 C 54 % 1009,2 hPa - 0,0 km/h - 5,4 C 8,3 C 0,0 km/h
Max-Datum _ 25.09.11 20.09.11 20.09.11 19.09.11 20.09.11 - 25.09.11 25.09.11 20.09.11
_ Max-Zeit 16:00 01:15 21:00 19:00 04:30 - 14:00 16:00 04:00
Maximum _ 23,3 C 83 % 1024,2 hPa 1,3 l/m 9,7 km/h
SW
- 14,3 C 23,3 C 37,0 km/h
W-SW
Durchschnitt _ 14,7 C 76 % 1018,2 hPa #9,6 l/m 2,1 km/h N-NW 10,3 C 14,6 C 8,6 km/h